createdAt,value
2018-12-09T00:01:49.468Z,6.30
2018-12-09T00:04:21.634Z,6.30
2018-12-09T00:06:54.106Z,6.20
2018-12-09T00:09:26.130Z,6.20
2018-12-09T00:11:58.430Z,6.10
2018-12-09T00:14:30.879Z,6.00
2018-12-09T00:17:08.088Z,6.00
2018-12-09T00:19:45.076Z,6.00
2018-12-09T00:22:18.150Z,5.90
2018-12-09T00:24:50.229Z,5.90
2018-12-09T00:27:26.244Z,5.90
2018-12-09T00:29:58.485Z,5.90
2018-12-09T00:32:30.676Z,5.90
2018-12-09T00:35:02.908Z,5.90
2018-12-09T00:37:34.914Z,5.80
2018-12-09T00:40:11.190Z,5.90
2018-12-09T00:42:43.869Z,5.90
2018-12-09T00:45:16.382Z,5.80
2018-12-09T00:47:53.608Z,5.80
2018-12-09T00:50:25.655Z,5.80
2018-12-09T00:52:58.011Z,5.90
2018-12-09T00:55:35.231Z,5.90
2018-12-09T00:58:07.485Z,5.90
2018-12-09T01:00:39.683Z,6.00
2018-12-09T01:03:11.709Z,6.10
2018-12-09T01:05:44.114Z,6.20
2018-12-09T01:08:20.613Z,6.10
2018-12-09T01:10:57.311Z,6.10
2018-12-09T01:13:29.219Z,6.10
2018-12-09T01:16:01.689Z,6.10
2018-12-09T01:18:33.714Z,6.10
2018-12-09T01:21:06.133Z,6.10
2018-12-09T01:23:38.570Z,6.10
2018-12-09T01:26:14.831Z,6.10
2018-12-09T01:28:50.872Z,6.00
2018-12-09T01:31:22.854Z,6.00
2018-12-09T01:33:55.112Z,6.00
2018-12-09T01:36:27.086Z,5.90
2018-12-09T01:38:59.208Z,5.90
2018-12-09T01:41:31.327Z,5.90
2018-12-09T01:44:03.709Z,6.00
2018-12-09T01:46:40.880Z,6.00
2018-12-09T01:49:12.857Z,6.00
2018-12-09T01:51:50.137Z,6.10
2018-12-09T01:54:22.413Z,6.10
2018-12-09T01:56:58.261Z,6.10
2018-12-09T01:59:30.591Z,6.00
2018-12-09T02:02:03.767Z,6.10
2018-12-09T02:04:36.244Z,6.20
2018-12-09T02:07:08.541Z,6.20
2018-12-09T02:09:40.639Z,6.20
2018-12-09T02:12:13.012Z,6.10
2018-12-09T02:14:45.203Z,6.10
2018-12-09T02:17:22.193Z,6.10
2018-12-09T02:19:54.727Z,6.20
2018-12-09T02:22:31.761Z,6.20
2018-12-09T02:25:04.446Z,6.20
2018-12-09T02:27:36.565Z,6.10
2018-12-09T02:30:09.198Z,6.10
2018-12-09T02:32:41.103Z,6.20
2018-12-09T02:35:13.631Z,6.30
2018-12-09T02:37:45.830Z,6.40
2018-12-09T02:40:18.104Z,6.50
2018-12-09T02:42:50.091Z,6.50
2018-12-09T02:45:22.318Z,6.50
2018-12-09T02:47:54.621Z,6.50
2018-12-09T02:50:27.041Z,6.50
2018-12-09T02:53:02.803Z,6.60
2018-12-09T02:55:35.636Z,6.70
2018-12-09T02:58:07.924Z,6.80
2018-12-09T03:00:40.103Z,6.80
2018-12-09T03:03:12.212Z,6.70
2018-12-09T03:05:44.440Z,6.70
2018-12-09T03:08:16.434Z,6.70
2018-12-09T03:10:54.970Z,6.60
2018-12-09T03:13:27.197Z,6.70
2018-12-09T03:15:59.382Z,6.60
2018-12-09T03:18:31.563Z,6.60
2018-12-09T03:21:07.160Z,6.60
2018-12-09T03:23:42.689Z,6.60
2018-12-09T03:26:15.024Z,6.60
2018-12-09T03:28:47.128Z,6.50
2018-12-09T03:31:19.123Z,6.50
2018-12-09T03:33:51.622Z,6.60
2018-12-09T03:36:23.910Z,6.60
2018-12-09T03:38:56.063Z,6.60
2018-12-09T03:41:27.981Z,6.70
2018-12-09T03:44:00.141Z,6.80
2018-12-09T03:46:32.131Z,7.00
2018-12-09T03:49:04.176Z,7.00
2018-12-09T03:51:36.463Z,7.00
2018-12-09T03:54:08.348Z,6.90
2018-12-09T03:56:40.974Z,6.90
2018-12-09T03:59:16.995Z,7.00
2018-12-09T04:01:53.374Z,7.00
2018-12-09T04:04:25.633Z,7.10
2018-12-09T04:07:02.152Z,7.10
2018-12-09T04:09:34.168Z,7.20
2018-12-09T04:12:09.670Z,7.20
2018-12-09T04:14:41.981Z,7.20
2018-12-09T04:17:14.107Z,7.30
2018-12-09T04:19:46.404Z,7.30
2018-12-09T04:22:18.783Z,7.40
2018-12-09T04:24:51.071Z,7.40
2018-12-09T04:27:23.462Z,7.40
2018-12-09T04:29:59.070Z,7.40
2018-12-09T04:32:34.570Z,7.40
2018-12-09T04:35:06.639Z,7.40
2018-12-09T04:37:39.090Z,7.40
2018-12-09T04:40:11.184Z,7.50
2018-12-09T04:42:46.823Z,7.60
2018-12-09T04:45:19.108Z,7.60
2018-12-09T04:47:51.493Z,7.60
2018-12-09T04:50:23.442Z,7.60
2018-12-09T04:52:55.748Z,7.80
2018-12-09T04:55:27.847Z,7.90
2018-12-09T04:58:00.263Z,8.00
2018-12-09T05:00:43.660Z,8.10
2018-12-09T05:03:19.369Z,8.30
2018-12-09T05:05:55.887Z,8.60
2018-12-09T05:08:28.107Z,8.60
2018-12-09T05:11:00.244Z,8.40
2018-12-09T05:18:43.244Z,8.00
2018-12-09T05:21:15.180Z,8.20
2018-12-09T05:23:47.446Z,8.70
2018-12-09T05:26:19.698Z,8.80
2018-12-09T05:28:51.840Z,8.90
2018-12-09T05:31:24.045Z,9.20
2018-12-09T05:33:56.386Z,9.40
2018-12-09T05:36:28.513Z,9.30
2018-12-09T05:39:00.607Z,9.10
2018-12-09T05:41:32.641Z,9.00
2018-12-09T05:44:04.942Z,8.90
2018-12-09T05:46:37.152Z,8.90
2018-12-09T05:49:09.170Z,8.90
2018-12-09T05:51:41.580Z,8.80
2018-12-09T05:54:13.496Z,8.80
2018-12-09T05:56:45.800Z,8.60
2018-12-09T05:59:18.135Z,8.50
2018-12-09T06:01:50.460Z,8.40
2018-12-09T06:04:22.784Z,8.40
2018-12-09T06:06:54.992Z,8.40
2018-12-09T06:09:31.500Z,8.30
2018-12-09T06:12:07.079Z,8.20
2018-12-09T06:14:39.510Z,8.10
2018-12-09T06:19:44.838Z,7.90
2018-12-09T06:22:17.270Z,7.80
2018-12-09T06:24:49.771Z,7.80
2018-12-09T06:27:22.315Z,7.80
2018-12-09T06:29:54.516Z,7.90
2018-12-09T06:32:26.702Z,8.00
2018-12-09T06:34:59.041Z,8.00
2018-12-09T06:37:31.251Z,8.10
2018-12-09T06:40:03.397Z,8.00
2018-12-09T06:42:35.623Z,7.90
2018-12-09T06:45:11.841Z,7.80
2018-12-09T06:47:43.774Z,7.80
2018-12-09T06:50:16.067Z,7.70
2018-12-09T06:52:48.374Z,7.60
2018-12-09T06:55:20.555Z,7.50
2018-12-09T06:57:56.740Z,7.40
2018-12-09T07:00:29.078Z,7.30
2018-12-09T07:03:01.254Z,7.30
2018-12-09T07:05:33.558Z,7.30
2018-12-09T07:08:05.931Z,7.30
2018-12-09T07:10:38.211Z,7.20
2018-12-09T07:13:10.333Z,7.20
2018-12-09T07:15:42.436Z,7.20
2018-12-09T07:18:14.759Z,7.20
2018-12-09T07:38:35.569Z,7.00
2018-12-09T07:41:12.761Z,7.10
2018-12-09T07:43:44.963Z,6.90
2018-12-09T07:46:20.518Z,6.90
2018-12-09T07:48:52.633Z,7.10
2018-12-09T07:51:24.878Z,7.10
2018-12-09T07:53:56.990Z,7.20
2018-12-09T07:56:29.422Z,7.20
2018-12-09T07:59:01.562Z,7.20
2018-12-09T08:01:33.666Z,6.90
2018-12-09T08:04:05.806Z,6.70
2018-12-09T08:06:38.172Z,6.60
2018-12-09T08:09:15.507Z,6.50
2018-12-09T08:11:47.742Z,6.30
2018-12-09T08:14:19.878Z,6.20
2018-12-09T08:16:52.110Z,6.10
2018-12-09T08:19:24.240Z,6.10
2018-12-09T08:22:00.701Z,6.20
2018-12-09T08:24:32.834Z,6.20
2018-12-09T08:27:04.948Z,6.30
2018-12-09T08:29:37.276Z,6.40
2018-12-09T08:32:09.606Z,6.60
2018-12-09T08:34:41.957Z,6.50
2018-12-09T08:37:14.334Z,6.70
2018-12-09T08:49:58.856Z,7.40
2018-12-09T08:52:36.084Z,7.40
2018-12-09T08:55:13.386Z,7.40
2018-12-09T08:57:45.808Z,7.60
2018-12-09T09:00:23.307Z,7.80
2018-12-09T09:02:55.521Z,7.80
2018-12-09T09:05:27.961Z,7.80
2018-12-09T09:08:00.191Z,7.70
2018-12-09T09:10:35.753Z,7.80
2018-12-09T09:13:07.865Z,8.00
2018-12-09T09:15:43.655Z,8.00
2018-12-09T09:18:15.899Z,7.90
2018-12-09T09:20:48.123Z,7.80
2018-12-09T09:23:20.553Z,7.70
2018-12-09T09:25:53.035Z,7.70
2018-12-09T09:28:30.442Z,7.70
2018-12-09T09:31:02.577Z,7.60
2018-12-09T09:33:34.786Z,7.40
2018-12-09T09:36:10.309Z,7.30
2018-12-09T09:38:47.537Z,7.20
2018-12-09T09:41:19.788Z,6.90
2018-12-09T09:43:52.077Z,6.70
2018-12-09T09:46:29.161Z,6.70
2018-12-09T09:49:01.497Z,6.70
2018-12-09T10:09:25.461Z,6.90
2018-12-09T10:11:57.619Z,7.00
2018-12-09T10:14:29.970Z,7.00
2018-12-09T10:17:02.179Z,6.90
2018-12-09T10:19:34.335Z,6.80
2018-12-09T10:22:06.545Z,6.60
2018-12-09T10:24:38.738Z,6.50
2018-12-09T10:27:11.139Z,6.50
2018-12-09T10:29:43.454Z,6.40
2018-12-09T10:32:22.730Z,6.20
2018-12-09T10:34:54.608Z,6.20
2018-12-09T10:37:26.845Z,6.20
2018-12-09T10:39:59.206Z,6.10
2018-12-09T10:42:31.646Z,6.10
2018-12-09T10:45:08.939Z,6.20
2018-12-09T10:47:40.958Z,6.40
2018-12-09T10:50:13.433Z,6.70
2018-12-09T10:52:45.652Z,6.90
2018-12-09T10:55:17.967Z,6.80
2018-12-09T10:57:49.885Z,7.00
2018-12-09T11:00:27.324Z,7.10
2018-12-09T11:03:04.104Z,7.20
2018-12-09T11:05:36.125Z,7.20
2018-12-09T11:08:08.606Z,7.20
2018-12-09T11:10:45.734Z,7.30
2018-12-09T11:13:17.666Z,7.30
2018-12-09T11:15:49.919Z,7.30
2018-12-09T11:18:22.214Z,7.30
2018-12-09T11:20:54.328Z,7.40
2018-12-09T11:23:26.753Z,7.30
2018-12-09T11:25:59.246Z,7.30
2018-12-09T11:28:37.828Z,7.30
2018-12-09T11:31:14.201Z,7.40
2018-12-09T11:33:53.606Z,7.60
2018-12-09T11:36:25.648Z,7.70
2018-12-09T11:38:58.097Z,7.70
2018-12-09T11:41:33.830Z,7.60
2018-12-09T11:44:11.110Z,7.60
2018-12-09T11:46:43.743Z,7.90
2018-12-09T11:49:15.681Z,8.10
2018-12-09T11:51:47.637Z,8.00
2018-12-09T11:54:24.035Z,7.90
2018-12-09T11:56:56.181Z,7.90
2018-12-09T11:59:28.466Z,7.70
2018-12-09T12:02:00.852Z,7.50
2018-12-09T12:04:32.913Z,7.40
2018-12-09T12:07:04.944Z,7.30
2018-12-09T12:09:42.097Z,7.30
2018-12-09T12:12:14.028Z,7.40
2018-12-09T12:14:46.274Z,7.70
2018-12-09T12:17:18.360Z,7.90
2018-12-09T12:19:50.702Z,7.90
2018-12-09T12:22:27.928Z,8.00
2018-12-09T12:25:00.172Z,8.00
2018-12-09T12:27:32.424Z,7.80
2018-12-09T12:30:05.485Z,7.70
2018-12-09T12:32:37.769Z,7.50
2018-12-09T12:35:10.281Z,7.40
2018-12-09T12:37:46.094Z,7.30
2018-12-09T12:40:18.367Z,7.20
2018-12-09T12:42:50.504Z,7.10
2018-12-09T12:45:22.527Z,7.10
2018-12-09T12:47:55.173Z,7.10
2018-12-09T12:50:27.237Z,7.10
2018-12-09T12:52:59.645Z,7.10
2018-12-09T12:55:31.725Z,7.00
2018-12-09T12:58:34.857Z,7.00
2018-12-09T13:01:07.413Z,6.80
2018-12-09T13:03:39.335Z,6.80
2018-12-09T13:06:15.784Z,6.70
2018-12-09T13:08:48.009Z,6.70
2018-12-09T13:11:23.508Z,6.70
2018-12-09T13:13:55.501Z,6.70
2018-12-09T13:16:31.392Z,6.60
2018-12-09T13:19:07.942Z,6.60
2018-12-09T13:21:43.473Z,6.50
2018-12-09T13:24:15.595Z,6.50
2018-12-09T13:26:47.894Z,6.40
2018-12-09T13:29:24.203Z,6.40
2018-12-09T13:31:56.525Z,6.40
2018-12-09T13:34:28.631Z,6.40
2018-12-09T13:37:00.953Z,6.40
2018-12-09T13:39:33.436Z,6.30
2018-12-09T13:42:05.378Z,6.30
2018-12-09T13:44:37.811Z,6.30
2018-12-09T13:47:09.940Z,6.30
2018-12-09T13:49:46.690Z,6.20
2018-12-09T13:52:19.152Z,6.20
2018-12-09T13:54:51.174Z,6.20
2018-12-09T13:57:23.617Z,6.20
2018-12-09T13:59:56.025Z,6.20
2018-12-09T14:02:28.544Z,6.20
2018-12-09T14:05:04.284Z,6.20
2018-12-09T14:07:36.458Z,6.10
2018-12-09T14:10:08.956Z,6.10
2018-12-09T14:12:40.888Z,6.10
2018-12-09T14:15:13.224Z,6.10
2018-12-09T14:17:45.547Z,6.10
2018-12-09T14:20:17.588Z,6.00
2018-12-09T14:22:53.932Z,6.00
2018-12-09T14:25:25.993Z,5.90
2018-12-09T14:27:58.369Z,5.90
2018-12-09T14:30:30.755Z,5.90
2018-12-09T14:33:03.084Z,5.90
2018-12-09T14:35:35.305Z,5.80
2018-12-09T14:38:06.866Z,5.80
2018-12-09T14:40:39.181Z,5.80
2018-12-09T14:43:11.599Z,5.70
2018-12-09T14:45:48.874Z,5.60
2018-12-09T14:48:21.553Z,5.60
2018-12-09T14:50:53.766Z,5.50
2018-12-09T14:53:25.898Z,5.50
2018-12-09T14:55:58.063Z,5.50
2018-12-09T14:58:30.071Z,5.60
2018-12-09T15:01:02.699Z,5.60
2018-12-09T15:03:35.010Z,5.60
2018-12-09T15:06:07.374Z,5.60
2018-12-09T15:08:39.440Z,5.60
2018-12-09T15:11:11.852Z,5.60
2018-12-09T15:13:44.060Z,5.60
2018-12-09T15:16:16.174Z,5.60
2018-12-09T15:18:48.432Z,5.60
2018-12-09T15:21:20.532Z,5.60
2018-12-09T15:23:52.521Z,5.70
2018-12-09T15:26:24.663Z,5.60
2018-12-09T15:28:56.893Z,5.60
2018-12-09T15:31:29.032Z,5.60
2018-12-09T15:34:01.286Z,5.60
2018-12-09T15:36:33.434Z,5.60
2018-12-09T15:39:08.974Z,5.60
2018-12-09T15:41:41.106Z,5.60
2018-12-09T15:44:13.180Z,5.60
2018-12-09T15:46:45.464Z,5.50
2018-12-09T15:49:17.780Z,5.50
2018-12-09T15:51:49.946Z,5.60
2018-12-09T15:54:22.406Z,5.50
2018-12-09T15:56:54.338Z,5.60
2018-12-09T15:59:32.077Z,5.60
2018-12-09T16:02:04.844Z,5.60
2018-12-09T16:04:36.659Z,5.60
2018-12-09T16:07:12.415Z,5.60
2018-12-09T16:09:44.715Z,5.60
2018-12-09T16:12:16.232Z,5.60
2018-12-09T16:14:48.360Z,5.60
2018-12-09T16:17:20.681Z,5.60
2018-12-09T16:27:27.749Z,6.50
2018-12-09T16:30:00.082Z,6.80
2018-12-09T16:32:32.392Z,7.00
2018-12-09T16:35:10.202Z,7.00
2018-12-09T16:37:45.885Z,7.10
2018-12-09T16:40:18.202Z,7.10
2018-12-09T16:42:50.384Z,7.10
2018-12-09T16:45:22.637Z,7.20
2018-12-09T16:47:54.905Z,7.20
2018-12-09T16:50:27.018Z,7.20
2018-12-09T16:52:59.053Z,7.30
2018-12-09T16:55:31.092Z,7.50
2018-12-09T16:58:03.532Z,7.70
2018-12-09T17:00:35.858Z,7.70
2018-12-09T17:03:08.228Z,7.80
2018-12-09T17:05:40.578Z,7.70
2018-12-09T17:08:12.707Z,7.50
2018-12-09T17:10:49.982Z,7.50
2018-12-09T17:13:22.207Z,7.60
2018-12-09T17:15:54.528Z,7.60
2018-12-09T17:18:26.783Z,7.80
2018-12-09T17:20:58.907Z,8.00
2018-12-09T17:23:31.411Z,8.10
2018-12-09T17:26:03.468Z,8.30
2018-12-09T17:46:31.173Z,8.50
2018-12-09T17:49:03.317Z,8.70
2018-12-09T17:51:35.886Z,8.80
2018-12-09T17:54:12.057Z,8.80
2018-12-09T17:56:43.977Z,9.00
2018-12-09T17:59:16.083Z,8.90
2018-12-09T18:01:48.341Z,8.90
2018-12-09T18:04:20.362Z,8.90
2018-12-09T18:06:52.720Z,8.80
2018-12-09T18:09:25.124Z,8.40
2018-12-09T18:11:57.544Z,8.00
2018-12-09T18:14:29.791Z,7.70
2018-12-09T18:17:06.901Z,7.60
2018-12-09T18:19:39.240Z,7.60
2018-12-09T18:22:11.571Z,7.50
2018-12-09T18:24:43.918Z,7.40
2018-12-09T18:27:16.242Z,7.40
2018-12-09T18:29:48.610Z,7.40
2018-12-09T18:32:20.938Z,7.40
2018-12-09T18:34:53.278Z,7.40
2018-12-09T18:37:30.459Z,7.40
2018-12-09T18:40:03.128Z,7.40
2018-12-09T18:42:35.147Z,7.40
2018-12-09T18:45:07.624Z,7.30
2018-12-09T18:47:39.764Z,7.30
2018-12-09T18:50:16.203Z,7.30
2018-12-09T18:52:48.546Z,7.40
2018-12-09T18:55:20.403Z,7.40
2018-12-09T18:57:52.602Z,7.30
2018-12-09T19:00:24.841Z,7.30
2018-12-09T19:02:57.298Z,7.30
2018-12-09T19:05:29.732Z,7.20
2018-12-09T19:08:02.274Z,7.10
2018-12-09T19:10:34.172Z,7.00
2018-12-09T19:13:11.274Z,6.90
2018-12-09T19:15:43.319Z,6.90
2018-12-09T19:18:15.681Z,6.80
2018-12-09T19:20:48.035Z,6.60
2018-12-09T19:23:20.082Z,6.50
2018-12-09T19:25:52.451Z,6.50
2018-12-09T19:28:24.912Z,6.30
2018-12-09T19:30:57.306Z,6.30
2018-12-09T19:33:29.743Z,6.20
2018-12-09T19:36:01.964Z,6.20
2018-12-09T19:38:40.227Z,6.20
2018-12-09T19:41:12.699Z,6.20
2018-12-09T19:43:44.945Z,6.30
2018-12-09T19:46:21.195Z,6.20
2018-12-09T19:48:53.363Z,6.20
2018-12-09T19:51:25.201Z,6.10
2018-12-09T19:53:57.342Z,6.10
2018-12-09T19:56:29.672Z,6.10
2018-12-09T19:59:02.118Z,6.20
2018-12-09T20:01:38.448Z,6.30
2018-12-09T20:04:10.563Z,6.40
2018-12-09T20:06:42.745Z,6.40
2018-12-09T20:09:18.459Z,6.40
2018-12-09T20:11:50.983Z,6.40
2018-12-09T20:14:23.219Z,6.30
2018-12-09T20:16:55.647Z,6.30
2018-12-09T20:19:27.737Z,6.30
2018-12-09T20:22:05.011Z,6.20
2018-12-09T20:24:37.246Z,6.30
2018-12-09T20:27:09.316Z,6.30
2018-12-09T20:29:41.541Z,6.30
2018-12-09T20:32:14.078Z,6.50
2018-12-09T20:34:46.072Z,6.40
2018-12-09T20:37:18.497Z,6.40
2018-12-09T20:39:50.949Z,6.40
2018-12-09T20:42:23.111Z,6.40
2018-12-09T20:44:59.427Z,6.40
2018-12-09T20:47:31.672Z,6.40
2018-12-09T20:50:04.507Z,6.40
2018-12-09T20:52:36.432Z,6.50
2018-12-09T20:55:08.872Z,6.40
2018-12-09T20:57:48.051Z,6.50
2018-12-09T21:00:20.091Z,6.50
2018-12-09T21:02:52.134Z,6.50
2018-12-09T21:05:24.258Z,6.50
2018-12-09T21:07:56.516Z,6.50
2018-12-09T21:10:28.558Z,6.40
2018-12-09T21:13:00.582Z,6.40
2018-12-09T21:15:33.038Z,6.40
2018-12-09T21:18:05.315Z,6.30
2018-12-09T21:20:37.458Z,6.30
2018-12-09T21:23:09.765Z,6.30
2018-12-09T21:25:46.892Z,6.20
2018-12-09T21:28:18.988Z,6.10
2018-12-09T21:30:51.358Z,6.10
2018-12-09T21:33:23.453Z,6.00
2018-12-09T21:35:55.500Z,6.10
2018-12-09T21:38:27.786Z,6.10
2018-12-09T21:41:05.035Z,6.10
2018-12-09T21:43:37.157Z,6.10
2018-12-09T21:46:09.360Z,6.20
2018-12-09T22:03:56.723Z,6.70
2018-12-09T22:06:28.919Z,6.60
2018-12-09T22:09:01.340Z,6.70
2018-12-09T22:11:33.714Z,6.70
2018-12-09T22:14:05.876Z,6.70
2018-12-09T22:16:38.042Z,6.60
2018-12-09T22:19:10.565Z,6.60
2018-12-09T22:21:42.667Z,6.60
2018-12-09T22:24:15.094Z,6.60
2018-12-09T22:26:47.479Z,6.70
2018-12-09T22:29:19.861Z,6.70
2018-12-09T22:31:52.062Z,6.80
2018-12-09T22:34:24.375Z,6.80
2018-12-09T22:36:56.691Z,6.70
2018-12-09T22:39:29.138Z,6.70
2018-12-09T22:42:01.089Z,6.70
2018-12-09T22:44:33.598Z,6.60
2018-12-09T22:47:05.639Z,6.60
2018-12-09T22:49:37.819Z,6.60
2018-12-09T22:52:09.897Z,6.50
2018-12-09T22:54:41.976Z,6.50
2018-12-09T22:57:18.605Z,6.50
2018-12-09T22:59:50.943Z,6.60
2018-12-09T23:02:28.507Z,6.60
2018-12-09T23:10:06.110Z,6.80
2018-12-09T23:12:38.208Z,6.90
2018-12-09T23:15:10.400Z,7.00
2018-12-09T23:17:42.803Z,7.10
2018-12-09T23:20:19.211Z,7.00
2018-12-09T23:22:51.342Z,6.90
2018-12-09T23:25:23.492Z,6.70
2018-12-09T23:28:01.032Z,6.50
2018-12-09T23:30:33.097Z,6.20
2018-12-09T23:33:08.655Z,6.20
2018-12-09T23:35:40.717Z,6.30
2018-12-09T23:38:13.078Z,6.40
2018-12-09T23:40:45.398Z,6.40
2018-12-09T23:43:17.896Z,6.50
2018-12-09T23:45:49.928Z,6.50
2018-12-09T23:48:26.644Z,6.60
2018-12-09T23:51:02.887Z,6.60
2018-12-09T23:53:35.247Z,6.90
2018-12-09T23:56:12.652Z,7.00
2018-12-09T23:58:44.777Z,7.10
